Time;durP1;ratioP1;P1;durP2;ratioP2;P2;SDS_P1;SDS_P2;PMS_P1;PMS_P2;Temp;Humidity;BMP_temperature;BMP_pressure;BME280_temperature;BME280_humidity;BME280_pressure;Samples;Min_cycle;Max_cycle;Signal;HPM_P1;HPM_P2
2022/08/14 00:00:22;;;;;;;4.50;4.10;;;25.70;46.40;;;;;;5068913;28;20434;-71
2022/08/14 00:02:48;;;;;;;10.17;4.10;;;25.70;46.40;;;;;;5075087;28;20229;-71
2022/08/14 00:05:17;;;;;;;4.20;3.80;;;25.60;46.30;;;;;;5078670;28;20213;-71
2022/08/14 00:07:44;;;;;;;4.50;4.10;;;25.60;46.30;;;;;;5071957;28;20532;-71
2022/08/14 00:10:12;;;;;;;7.50;4.73;;;25.60;46.20;;;;;;5074098;28;21025;-71
2022/08/14 00:12:40;;;;;;;4.93;4.03;;;25.60;46.10;;;;;;5073932;28;21411;-71
2022/08/14 00:15:24;;;;;;;5.43;4.30;;;25.50;46.10;;;;;;5072745;28;20447;-71
2022/08/14 00:17:51;;;;;;;6.50;5.20;;;25.50;46.00;;;;;;5075171;28;20816;-71
2022/08/14 00:20:19;;;;;;;4.40;4.00;;;25.50;46.00;;;;;;5074844;28;20448;-71
2022/08/14 00:22:45;;;;;;;4.97;4.57;;;25.50;46.00;;;;;;5073395;28;20547;-70
2022/08/14 00:25:11;;;;;;;4.40;4.00;;;25.40;45.90;;;;;;5074206;28;20515;-71
2022/08/14 00:27:37;;;;;;;4.13;3.83;;;25.40;46.00;;;;;;5073914;28;20202;-71
2022/08/14 00:30:06;;;;;;;4.70;4.23;;;25.40;46.00;;;;;;5075502;28;20186;-71
2022/08/14 00:32:31;;;;;;;4.83;4.27;;;25.30;46.00;;;;;;5075081;28;20263;-71
2022/08/14 00:35:00;;;;;;;4.40;3.90;;;25.30;46.00;;;;;;5070878;28;20432;-71
2022/08/14 00:37:26;;;;;;;4.33;3.93;;;25.30;46.00;;;;;;5075602;28;20190;-71
2022/08/14 00:39:52;;;;;;;4.90;4.50;;;25.30;46.10;;;;;;5070806;28;20467;-71
2022/08/14 00:42:19;;;;;;;4.33;4.00;;;25.30;46.10;;;;;;5073685;28;20495;-71
2022/08/14 00:44:44;;;;;;;3.73;3.43;;;25.30;46.10;;;;;;5075746;28;20189;-71
2022/08/14 00:47:13;;;;;;;6.70;3.93;;;25.30;46.10;;;;;;5072646;28;20464;-71
2022/08/14 00:49:38;;;;;;;4.47;3.90;;;25.30;46.10;;;;;;5074811;28;20597;-71
2022/08/14 00:52:04;;;;;;;4.77;3.83;;;25.30;46.20;;;;;;5070608;28;20485;-71
2022/08/14 00:54:30;;;;;;;4.60;4.20;;;25.30;46.20;;;;;;5072158;28;20183;-71
2022/08/14 00:56:56;;;;;;;4.27;3.87;;;25.20;46.30;;;;;;5074269;28;20178;-70
2022/08/14 00:59:27;;;;;;;4.43;4.13;;;25.20;46.30;;;;;;5072394;28;20451;-71
2022/08/14 01:01:58;;;;;;;4.23;3.93;;;25.20;46.40;;;;;;5070828;28;20578;-71
2022/08/14 01:04:25;;;;;;;4.00;3.70;;;25.20;46.40;;;;;;5075062;28;20934;-71
2022/08/14 01:06:52;;;;;;;4.50;4.10;;;25.20;46.50;;;;;;5071454;28;20489;-70
2022/08/14 01:09:21;;;;;;;6.93;3.97;;;25.20;46.50;;;;;;5077217;28;20436;-70
2022/08/14 01:11:51;;;;;;;4.87;4.27;;;25.20;46.50;;;;;;5072507;28;20489;-71
2022/08/14 01:14:18;;;;;;;4.67;4.00;;;25.20;46.50;;;;;;5072883;28;20432;-71
2022/08/14 01:16:44;;;;;;;5.10;4.03;;;25.10;46.50;;;;;;5071661;28;20437;-71
2022/08/14 01:21:54;;;;;;;6.00;4.37;;;25.10;46.80;;;;;;5073357;28;20561;-71
2022/08/14 01:24:21;;;;;;;5.17;4.67;;;25.00;46.90;;;;;;5071821;28;20433;-70
2022/08/14 01:26:47;;;;;;;6.77;4.13;;;25.10;46.90;;;;;;5074368;28;20576;-70
2022/08/14 01:29:12;;;;;;;4.23;3.87;;;25.00;47.00;;;;;;5074612;28;20442;-70
2022/08/14 01:32:00;;;;;;;6.83;4.63;;;25.00;47.00;;;;;;5073725;28;20566;-70
2022/08/14 01:34:26;;;;;;;5.00;4.10;;;25.00;47.10;;;;;;5073346;28;20182;-70
2022/08/14 01:36:52;;;;;;;4.70;4.10;;;25.00;47.20;;;;;;5074679;28;20962;-70
2022/08/14 01:39:19;;;;;;;4.30;4.00;;;24.90;47.40;;;;;;5071862;28;20654;-70
2022/08/14 01:41:59;;;;;;;4.43;4.03;;;24.90;47.60;;;;;;5074112;28;20524;-71
2022/08/14 01:44:28;;;;;;;5.67;4.00;;;24.90;47.50;;;;;;5074322;28;20439;-70
2022/08/14 01:46:57;;;;;;;6.03;3.67;;;24.90;47.60;;;;;;5072795;28;20507;-71
2022/08/14 01:49:24;;;;;;;4.57;4.17;;;24.80;47.70;;;;;;5072471;28;20501;-70
2022/08/14 01:51:55;;;;;;;4.73;3.90;;;24.80;47.70;;;;;;5078033;28;20974;-70
2022/08/14 01:54:21;;;;;;;4.50;4.10;;;24.80;47.70;;;;;;5065790;28;20925;-71
2022/08/14 01:56:51;;;;;;;4.33;3.83;;;24.80;47.90;;;;;;5094062;22;20516;-77
2022/08/14 01:59:20;;;;;;;4.50;4.10;;;24.70;47.90;;;;;;5080402;28;20829;-76
2022/08/14 02:01:50;;;;;;;4.60;4.23;;;24.80;47.90;;;;;;5083789;28;20569;-77
2022/08/14 02:04:19;;;;;;;4.50;4.10;;;24.70;47.80;;;;;;5083214;28;20524;-76
2022/08/14 02:06:45;;;;;;;3.87;3.50;;;24.70;48.20;;;;;;5087824;28;20969;-76
2022/08/14 02:09:10;;;;;;;4.40;4.00;;;24.70;48.10;;;;;;5084497;28;20493;-76
2022/08/14 02:11:36;;;;;;;4.20;3.80;;;24.70;48.20;;;;;;5089843;28;20811;-77
2022/08/14 02:14:06;;;;;;;6.73;4.40;;;24.60;48.20;;;;;;5088013;28;20289;-77
2022/08/14 02:16:38;;;;;;;4.90;4.03;;;24.60;48.10;;;;;;5080881;28;20202;-77
2022/08/14 02:19:18;;;;;;;5.00;4.43;;;24.60;48.10;;;;;;5081995;28;20441;-76
2022/08/14 02:21:45;;;;;;;4.50;4.10;;;24.60;48.20;;;;;;5081821;28;20439;-76
2022/08/14 02:24:13;;;;;;;4.20;3.90;;;24.60;48.20;;;;;;5082615;28;20536;-76
2022/08/14 02:26:41;;;;;;;4.83;4.43;;;24.60;48.30;;;;;;5092822;22;20604;-64
2022/08/14 02:29:13;;;;;;;4.37;3.97;;;24.50;48.40;;;;;;5077199;28;20443;-64
2022/08/14 02:31:42;;;;;;;4.70;4.30;;;24.50;48.50;;;;;;5080161;28;20846;-65
2022/08/14 02:34:28;;;;;;;4.63;4.20;;;24.50;48.50;;;;;;5081612;28;20501;-65
2022/08/14 02:37:01;;;;;;;4.57;4.17;;;24.50;48.60;;;;;;5072130;28;20496;-65
2022/08/14 02:39:28;;;;;;;4.90;4.50;;;24.50;48.60;;;;;;5064455;28;20513;-65
2022/08/14 02:41:54;;;;;;;4.57;4.17;;;24.40;48.60;;;;;;5066787;28;20433;-67
2022/08/14 02:44:21;;;;;;;4.60;4.20;;;24.40;48.80;;;;;;5067412;28;20447;-65
2022/08/14 02:46:49;;;;;;;10.93;4.60;;;24.40;48.90;;;;;;5059881;28;20283;-65
2022/08/14 02:49:14;;;;;;;6.17;4.30;;;24.30;49.00;;;;;;5074387;28;20487;-65
2022/08/14 02:51:40;;;;;;;5.00;4.60;;;24.30;49.10;;;;;;5059578;28;20437;-65
2022/08/14 02:54:08;;;;;;;4.70;4.30;;;24.20;49.10;;;;;;5059796;28;20197;-65
2022/08/14 02:56:37;;;;;;;4.50;4.10;;;24.20;49.20;;;;;;5059200;28;20651;-65
2022/08/14 02:59:05;;;;;;;4.50;4.10;;;24.10;49.40;;;;;;5058931;28;20435;-65
2022/08/14 03:01:31;;;;;;;5.73;4.40;;;24.10;49.40;;;;;;5059521;28;20830;-64
2022/08/14 03:03:56;;;;;;;4.60;4.20;;;24.00;49.50;;;;;;5053522;28;20445;-64
2022/08/14 03:06:23;;;;;;;5.20;3.97;;;24.00;49.70;;;;;;5060223;28;20965;-64
2022/08/14 03:08:49;;;;;;;4.60;4.20;;;24.00;49.50;;;;;;5060822;28;20175;-64
2022/08/14 03:11:15;;;;;;;4.80;4.40;;;24.00;49.50;;;;;;5061079;28;20530;-64
2022/08/14 03:13:43;;;;;;;4.43;4.07;;;24.00;49.50;;;;;;5062832;28;20429;-64
2022/08/14 03:16:13;;;;;;;4.40;4.00;;;24.00;49.40;;;;;;5064202;28;20203;-65
2022/08/14 03:18:42;;;;;;;5.23;4.17;;;24.00;49.30;;;;;;5063366;28;20443;-66
2022/08/14 03:21:15;;;;;;;6.50;4.23;;;24.00;49.30;;;;;;5064563;28;22127;-66
2022/08/14 03:23:42;;;;;;;4.20;3.90;;;24.00;49.30;;;;;;5062221;28;20814;-66
2022/08/14 03:26:10;;;;;;;4.50;4.10;;;23.90;49.30;;;;;;5060716;28;21037;-66
2022/08/14 03:28:39;;;;;;;4.63;4.23;;;23.90;49.30;;;;;;5061756;28;20437;-65
2022/08/14 03:31:06;;;;;;;4.57;4.17;;;23.90;49.60;;;;;;5060692;28;20437;-65
2022/08/14 03:33:33;;;;;;;8.87;4.47;;;23.90;49.60;;;;;;5059796;28;20433;-65
2022/08/14 03:36:00;;;;;;;4.50;4.10;;;23.90;49.60;;;;;;5064805;28;20940;-65
2022/08/14 03:38:26;;;;;;;5.03;4.53;;;23.90;49.60;;;;;;5061594;28;20696;-65
2022/08/14 03:40:51;;;;;;;4.40;4.00;;;23.90;49.60;;;;;;5061959;28;20519;-65
2022/08/14 03:43:17;;;;;;;4.00;3.70;;;23.80;49.70;;;;;;5062218;28;20194;-65
2022/08/14 03:45:43;;;;;;;4.53;4.13;;;23.80;49.70;;;;;;5062503;28;20225;-65
2022/08/14 03:48:20;;;;;;;5.20;4.70;;;23.80;49.70;;;;;;5062207;28;20187;-66
2022/08/14 03:50:47;;;;;;;5.00;3.90;;;23.80;49.90;;;;;;5062381;28;20805;-65
2022/08/14 03:53:14;;;;;;;4.77;4.27;;;23.80;50.00;;;;;;5061422;28;20442;-65
2022/08/14 03:55:41;;;;;;;4.67;4.27;;;23.80;50.00;;;;;;5060678;28;20665;-65
2022/08/14 03:58:07;;;;;;;4.50;4.10;;;23.80;50.00;;;;;;5060353;28;20932;-65
2022/08/14 04:00:35;;;;;;;5.73;5.23;;;23.80;50.00;;;;;;5064135;28;20563;-65
2022/08/14 04:03:03;;;;;;;4.83;4.43;;;23.80;50.10;;;;;;5060708;28;21017;-65
2022/08/14 04:05:28;;;;;;;5.20;4.53;;;23.80;50.10;;;;;;5065090;28;20425;-66
2022/08/14 04:07:54;;;;;;;4.60;4.20;;;23.70;50.20;;;;;;5060576;28;20454;-66
2022/08/14 04:10:20;;;;;;;4.50;4.10;;;23.80;50.30;;;;;;5063650;28;20191;-65
2022/08/14 04:12:46;;;;;;;5.03;4.40;;;23.70;50.20;;;;;;5060129;28;20190;-65
2022/08/14 04:15:13;;;;;;;4.30;4.00;;;23.70;50.50;;;;;;5063417;28;20420;-65
2022/08/14 04:17:42;;;;;;;4.43;4.13;;;23.70;50.60;;;;;;5060341;28;20210;-65
2022/08/14 04:20:08;;;;;;;4.80;4.40;;;23.70;50.60;;;;;;5061248;28;20433;-65
2022/08/14 04:22:34;;;;;;;4.70;4.30;;;23.60;50.50;;;;;;5073103;28;20441;-65
2022/08/14 04:25:00;;;;;;;5.73;4.53;;;23.60;50.60;;;;;;5061227;28;20854;-66
2022/08/14 04:27:26;;;;;;;5.93;4.33;;;23.60;50.70;;;;;;5064041;28;20299;-65
2022/08/14 04:29:52;;;;;;;4.60;4.20;;;23.50;50.70;;;;;;5062014;28;20550;-65
2022/08/14 04:32:21;;;;;;;4.67;4.27;;;23.50;50.80;;;;;;5062017;28;20425;-66
2022/08/14 04:34:47;;;;;;;5.00;4.60;;;23.40;50.90;;;;;;5059174;28;20431;-65
2022/08/14 04:45:39;;;;;;;5.30;4.43;;;23.20;51.40;;;;;;5061807;28;20445;-65
2022/08/14 04:48:12;;;;;;;6.63;4.00;;;23.20;51.40;;;;;;5063980;28;20452;-65
2022/08/14 04:50:46;;;;;;;4.97;4.47;;;23.10;51.50;;;;;;5062800;28;20417;-65
2022/08/14 04:53:21;;;;;;;4.80;4.40;;;23.10;51.60;;;;;;5062694;28;20464;-65
2022/08/14 04:55:48;;;;;;;5.40;4.90;;;23.00;51.70;;;;;;5061213;28;20440;-65
2022/08/14 04:58:23;;;;;;;4.50;4.10;;;23.00;51.80;;;;;;5061366;28;20488;-65
2022/08/14 05:00:50;;;;;;;5.93;4.73;;;23.00;51.70;;;;;;5059670;28;20439;-65
2022/08/14 05:03:25;;;;;;;5.93;4.50;;;22.90;51.70;;;;;;5061950;28;20436;-65
2022/08/14 05:05:53;;;;;;;5.07;4.67;;;22.90;51.90;;;;;;5061589;28;21223;-65
2022/08/14 05:08:18;;;;;;;4.70;4.30;;;22.90;51.90;;;;;;5063136;28;20487;-65
2022/08/14 05:10:49;;;;;;;6.03;4.50;;;22.90;52.00;;;;;;5060489;28;20453;-65
2022/08/14 05:13:15;;;;;;;4.40;4.00;;;22.90;52.10;;;;;;5061361;28;20190;-65
2022/08/14 05:15:41;;;;;;;4.83;4.43;;;22.90;52.10;;;;;;5060975;28;20433;-65
2022/08/14 05:18:11;;;;;;;5.00;4.60;;;22.90;52.00;;;;;;5062436;28;20259;-65
2022/08/14 05:20:38;;;;;;;8.17;4.97;;;22.90;52.00;;;;;;5060915;28;20422;-66
2022/08/14 05:23:04;;;;;;;5.90;5.30;;;22.90;52.00;;;;;;5060632;28;20438;-66
2022/08/14 05:25:29;;;;;;;7.33;6.63;;;22.90;52.10;;;;;;5061634;28;20813;-66
2022/08/14 05:27:59;;;;;;;6.97;4.93;;;22.90;52.10;;;;;;5073290;28;20187;-66
2022/08/14 05:30:25;;;;;;;6.90;6.30;;;22.90;52.10;;;;;;5059514;28;20305;-65
2022/08/14 05:32:51;;;;;;;8.73;7.87;;;22.90;52.10;;;;;;5061233;28;20433;-65
2022/08/14 05:35:18;;;;;;;6.80;6.07;;;22.90;52.10;;;;;;5064140;28;20957;-66
2022/08/14 05:37:43;;;;;;;6.93;5.50;;;23.00;52.20;;;;;;5059397;28;20179;-65
2022/08/14 05:40:09;;;;;;;5.97;5.37;;;23.00;52.30;;;;;;5063004;28;20474;-65
2022/08/14 05:42:35;;;;;;;6.00;5.50;;;23.00;52.20;;;;;;5061559;28;20651;-65
2022/08/14 05:45:03;;;;;;;5.53;5.03;;;23.00;52.20;;;;;;5060934;28;20955;-66
2022/08/14 05:47:29;;;;;;;8.63;5.97;;;23.00;52.20;;;;;;5059348;28;20472;-65
2022/08/14 05:49:57;;;;;;;6.20;5.40;;;23.00;52.30;;;;;;5059635;28;20906;-65
2022/08/14 05:52:22;;;;;;;7.33;5.70;;;23.00;52.70;;;;;;5059980;28;20207;-65
2022/08/14 05:54:48;;;;;;;5.07;4.60;;;23.00;52.60;;;;;;5062108;28;20495;-65
2022/08/14 05:57:13;;;;;;;5.13;4.63;;;23.00;52.50;;;;;;5064123;28;20595;-65
2022/08/14 05:59:40;;;;;;;6.83;6.13;;;23.00;52.60;;;;;;5061937;28;20179;-65
2022/08/14 06:02:07;;;;;;;5.30;4.37;;;23.00;52.60;;;;;;5058322;28;20202;-65
2022/08/14 06:04:32;;;;;;;5.80;5.03;;;23.00;52.60;;;;;;5062427;28;20541;-65
2022/08/14 06:06:58;;;;;;;5.83;5.33;;;23.10;52.60;;;;;;5058793;28;21199;-65
2022/08/14 06:09:24;;;;;;;7.73;4.93;;;23.00;52.50;;;;;;5070946;28;20754;-65
2022/08/14 06:11:49;;;;;;;5.50;5.03;;;23.10;52.60;;;;;;5050954;28;20215;-65
2022/08/14 06:14:15;;;;;;;5.37;4.97;;;23.10;52.60;;;;;;5060444;28;20190;-65
2022/08/14 06:16:43;;;;;;;5.37;4.73;;;23.20;52.70;;;;;;5066556;28;20214;-65
2022/08/14 06:19:09;;;;;;;4.87;4.47;;;23.20;52.70;;;;;;5069690;28;20222;-65
2022/08/14 06:21:35;;;;;;;6.60;4.57;;;23.20;52.70;;;;;;5064001;28;20435;-65
2022/08/14 06:24:00;;;;;;;5.10;4.63;;;23.30;52.90;;;;;;5068633;28;20189;-65
2022/08/14 06:26:26;;;;;;;5.50;4.60;;;23.30;52.80;;;;;;5063919;28;20298;-65
2022/08/14 06:28:51;;;;;;;5.10;4.60;;;23.20;53.30;;;;;;5062540;28;20212;-65
2022/08/14 06:31:17;;;;;;;4.77;4.33;;;23.30;52.80;;;;;;5068515;28;20253;-65
2022/08/14 06:33:43;;;;;;;4.93;4.53;;;23.30;52.70;;;;;;5064697;28;20182;-65
2022/08/14 06:36:08;;;;;;;4.60;4.30;;;23.40;52.70;;;;;;5063920;28;20207;-65
2022/08/14 06:38:34;;;;;;;5.00;4.60;;;23.40;52.60;;;;;;5065205;28;20186;-65
2022/08/14 06:40:59;;;;;;;5.00;4.50;;;23.40;52.40;;;;;;5063194;28;20187;-65
2022/08/14 06:43:25;;;;;;;5.30;4.60;;;23.50;52.40;;;;;;5058757;28;20183;-66
2022/08/14 06:45:50;;;;;;;6.70;4.43;;;23.50;52.30;;;;;;5061990;28;20617;-65
2022/08/14 06:48:22;;;;;;;4.83;4.30;;;23.60;52.30;;;;;;5061883;28;20175;-65
2022/08/14 06:50:48;;;;;;;5.10;4.70;;;23.60;52.30;;;;;;5059056;28;20182;-66
2022/08/14 06:53:15;;;;;;;5.03;4.63;;;23.70;52.40;;;;;;5059678;28;20437;-65
2022/08/14 06:55:41;;;;;;;5.50;4.47;;;23.70;52.60;;;;;;5060911;28;20459;-65
2022/08/14 06:58:11;;;;;;;5.20;4.70;;;23.80;52.80;;;;;;5064552;28;20420;-64
2022/08/14 07:00:37;;;;;;;5.03;4.63;;;23.80;52.90;;;;;;5062507;28;20445;-64
2022/08/14 07:05:47;;;;;;;5.43;4.93;;;23.90;53.50;;;;;;5052124;28;20205;-66
2022/08/14 07:08:16;;;;;;;7.20;5.50;;;24.00;53.60;;;;;;5059717;28;20441;-66
2022/08/14 07:10:45;;;;;;;6.27;4.77;;;24.10;53.70;;;;;;5058197;28;20422;-72
2022/08/14 07:13:12;;;;;;;5.53;5.13;;;24.10;53.60;;;;;;5057187;28;20449;-77
2022/08/14 07:15:39;;;;;;;8.20;5.97;;;24.20;53.50;;;;;;5053228;28;20502;-68
2022/08/14 07:18:04;;;;;;;11.13;9.10;;;24.20;53.50;;;;;;5060764;28;20941;-73
2022/08/14 07:20:31;;;;;;;7.50;6.90;;;24.30;53.70;;;;;;5062827;28;20438;-69
2022/08/14 07:22:57;;;;;;;8.57;7.20;;;24.30;53.70;;;;;;5060895;28;20667;-67
2022/08/14 07:25:27;;;;;;;5.90;5.30;;;24.40;54.10;;;;;;5057706;28;20441;-71
2022/08/14 07:27:53;;;;;;;6.40;5.80;;;24.40;53.90;;;;;;5071042;28;20461;-64
